createdAt,value
2023-05-24T00:00:31.902Z,18.90
2023-05-24T00:03:21.856Z,19.33
2023-05-24T00:05:49.393Z,16.67
2023-05-24T00:08:17.050Z,18.80
2023-05-24T00:10:44.510Z,20.20
2023-05-24T00:13:12.321Z,17.55
2023-05-24T00:15:39.643Z,19.42
2023-05-24T00:18:07.353Z,20.75
2023-05-24T00:20:34.853Z,21.13
2023-05-24T00:23:02.526Z,17.52
2023-05-24T00:25:29.842Z,16.60
2023-05-24T00:27:57.387Z,17.58
2023-05-24T00:30:24.703Z,17.65
2023-05-24T00:32:52.450Z,21.27
2023-05-24T00:35:19.859Z,23.85
2023-05-24T00:37:48.246Z,21.27
2023-05-24T00:40:15.555Z,18.48
2023-05-24T00:42:43.098Z,22.65
2023-05-24T00:45:11.072Z,18.77
2023-05-24T00:47:38.911Z,24.70
2023-05-24T00:50:09.970Z,20.08
2023-05-24T00:52:37.939Z,18.77
2023-05-24T00:55:07.348Z,21.38
2023-05-24T00:57:36.974Z,21.00
2023-05-24T01:00:07.862Z,24.63
2023-05-24T01:02:35.700Z,20.42
2023-05-24T01:05:04.152Z,19.83
2023-05-24T01:07:59.475Z,18.58
2023-05-24T01:10:47.822Z,19.35
2023-05-24T01:13:47.863Z,18.95
2023-05-24T01:16:26.337Z,19.77
2023-05-24T01:19:00.748Z,20.80
2023-05-24T01:22:20.665Z,20.35
2023-05-24T01:25:13.168Z,19.70
2023-05-24T01:27:43.366Z,18.42
2023-05-24T01:30:12.265Z,19.40
2023-05-24T01:32:40.000Z,19.70
2023-05-24T01:35:08.137Z,18.75
2023-05-24T01:37:35.601Z,20.75
2023-05-24T01:40:04.634Z,18.25
2023-05-24T01:42:49.081Z,21.65
2023-05-24T01:45:42.258Z,19.55
2023-05-24T01:48:33.899Z,20.92
2023-05-24T01:51:07.932Z,24.55
2023-05-24T01:53:46.605Z,31.10
2023-05-24T01:56:19.685Z,23.90
2023-05-24T01:58:52.839Z,25.73
2023-05-24T02:01:20.983Z,24.55
2023-05-24T02:03:48.483Z,39.95
2023-05-24T02:06:16.075Z,24.48
2023-05-24T02:08:43.436Z,21.77
2023-05-24T02:11:11.069Z,32.95
2023-05-24T02:13:38.329Z,30.23
2023-05-24T02:16:06.212Z,30.77
2023-05-24T02:18:34.977Z,25.73
2023-05-24T02:21:03.334Z,21.85
2023-05-24T02:23:30.805Z,22.95
2023-05-24T02:25:58.404Z,23.48
2023-05-24T02:28:25.732Z,23.35
2023-05-24T02:30:53.360Z,26.00
2023-05-24T02:33:21.240Z,20.88
2023-05-24T02:35:49.001Z,23.50
2023-05-24T02:38:16.400Z,29.63
2023-05-24T02:40:44.204Z,25.85
2023-05-24T02:43:11.688Z,26.35
2023-05-24T02:45:39.385Z,25.80
2023-05-24T02:48:06.825Z,29.35
2023-05-24T02:50:34.743Z,28.40
2023-05-24T02:53:02.005Z,34.50
2023-05-24T02:55:29.645Z,36.78
2023-05-24T02:57:56.995Z,36.00
2023-05-24T03:00:24.661Z,28.38
2023-05-24T03:02:52.708Z,25.15
2023-05-24T03:05:20.569Z,22.65
2023-05-24T03:07:47.875Z,20.02
2023-05-24T03:10:16.074Z,23.23
2023-05-24T03:12:43.429Z,21.40
2023-05-24T03:15:11.827Z,20.65
2023-05-24T03:17:39.154Z,20.60
2023-05-24T03:20:08.068Z,21.20
2023-05-24T03:22:35.400Z,22.20
2023-05-24T03:25:03.019Z,34.00
2023-05-24T03:27:30.416Z,25.42
2023-05-24T03:29:58.039Z,19.33
2023-05-24T03:32:25.596Z,20.83
2023-05-24T03:34:53.408Z,21.02
2023-05-24T03:37:20.860Z,19.00
2023-05-24T03:39:48.471Z,19.58
2023-05-24T03:42:16.028Z,19.48
2023-05-24T03:44:44.093Z,20.02
2023-05-24T03:47:11.464Z,16.88
2023-05-24T03:49:39.182Z,17.85
2023-05-24T03:52:06.534Z,18.23
2023-05-24T03:54:34.116Z,17.25
2023-05-24T03:57:01.861Z,20.75
2023-05-24T03:59:31.023Z,19.52
2023-05-24T04:01:58.518Z,18.10
2023-05-24T04:04:27.111Z,20.08
2023-05-24T04:06:54.418Z,20.58
2023-05-24T04:09:23.794Z,20.60
2023-05-24T04:11:51.306Z,21.30
2023-05-24T04:14:18.907Z,23.85
2023-05-24T04:16:46.950Z,21.60
2023-05-24T04:19:14.735Z,22.92
2023-05-24T04:21:42.136Z,20.20
2023-05-24T04:24:09.799Z,19.35
2023-05-24T04:26:37.924Z,26.75
2023-05-24T04:29:05.618Z,39.65
2023-05-24T04:31:34.402Z,15.57
2023-05-24T04:34:02.340Z,13.88
2023-05-24T04:36:31.561Z,18.65
2023-05-24T04:39:03.060Z,13.15
2023-05-24T04:41:35.824Z,16.38
2023-05-24T04:44:03.584Z,12.43
2023-05-24T04:46:31.592Z,11.90
2023-05-24T04:48:59.337Z,10.15
2023-05-24T04:51:26.771Z,13.40
2023-05-24T04:53:54.652Z,12.13
2023-05-24T04:56:23.034Z,13.68
2023-05-24T04:58:50.691Z,11.63
2023-05-24T05:01:18.419Z,10.18
2023-05-24T05:03:46.467Z,11.25
2023-05-24T05:06:14.225Z,8.50
2023-05-24T05:08:41.942Z,8.32
2023-05-24T05:11:09.876Z,7.13
2023-05-24T05:13:37.520Z,10.65
2023-05-24T05:16:05.560Z,11.18
2023-05-24T05:18:34.175Z,7.07
2023-05-24T05:21:01.459Z,8.25
2023-05-24T05:23:30.259Z,7.15
2023-05-24T05:25:57.875Z,8.75
2023-05-24T05:28:25.686Z,6.55
2023-05-24T05:30:53.035Z,25.83
2023-05-24T05:33:20.727Z,8.25
2023-05-24T05:35:48.208Z,6.38
2023-05-24T05:38:15.999Z,5.25
2023-05-24T05:40:43.615Z,6.60
2023-05-24T05:43:11.406Z,6.22
2023-05-24T05:45:38.815Z,4.78
2023-05-24T05:48:06.768Z,5.25
2023-05-24T05:50:34.297Z,5.30
2023-05-24T05:53:02.002Z,7.10
2023-05-24T05:55:29.336Z,5.57
2023-05-24T05:57:57.117Z,4.32
2023-05-24T06:00:24.431Z,5.15
2023-05-24T06:02:52.232Z,5.70
2023-05-24T06:05:19.922Z,5.55
2023-05-24T06:07:47.685Z,16.98
2023-05-24T06:10:15.080Z,6.60
2023-05-24T06:12:42.863Z,6.00
2023-05-24T06:15:11.111Z,4.93
2023-05-24T06:17:38.855Z,5.68
2023-05-24T06:20:12.167Z,5.82
2023-05-24T06:22:40.051Z,10.90
2023-05-24T06:25:07.832Z,23.75
2023-05-24T06:27:35.679Z,7.10
2023-05-24T06:30:03.825Z,7.50
2023-05-24T06:32:31.501Z,7.20
2023-05-24T06:35:05.663Z,5.38
2023-05-24T06:37:33.715Z,5.38
2023-05-24T06:40:01.095Z,5.38
2023-05-24T06:42:28.676Z,6.90
2023-05-24T06:44:56.160Z,6.55
2023-05-24T06:47:23.961Z,6.60
2023-05-24T06:49:52.462Z,6.22
2023-05-24T06:52:20.126Z,13.40
2023-05-24T06:54:47.499Z,20.70
2023-05-24T06:57:15.209Z,11.20
2023-05-24T06:59:42.563Z,8.10
2023-05-24T07:02:10.786Z,10.05
2023-05-24T07:04:41.264Z,10.30
2023-05-24T07:07:13.288Z,8.80
2023-05-24T07:09:42.488Z,8.95
2023-05-24T07:12:10.536Z,9.07
2023-05-24T07:14:38.112Z,9.15
2023-05-24T07:17:06.603Z,8.07
2023-05-24T07:19:36.163Z,8.57
2023-05-24T07:22:03.804Z,8.60
2023-05-24T07:24:31.439Z,14.32
2023-05-24T07:26:59.124Z,26.00
2023-05-24T07:29:26.952Z,13.85
2023-05-24T07:31:56.669Z,16.52
2023-05-24T07:34:27.665Z,20.63
2023-05-24T07:36:55.365Z,14.05
2023-05-24T07:39:23.392Z,10.05
2023-05-24T07:41:51.317Z,10.32
2023-05-24T07:44:19.909Z,10.02
2023-05-24T07:46:47.684Z,9.88
2023-05-24T07:49:15.164Z,9.63
2023-05-24T07:51:42.919Z,9.60
2023-05-24T07:54:10.277Z,8.65
2023-05-24T07:56:37.906Z,11.80
2023-05-24T07:59:05.419Z,18.65
2023-05-24T08:01:34.581Z,23.15
2023-05-24T08:04:05.214Z,12.68
2023-05-24T08:06:33.141Z,10.35
2023-05-24T08:09:00.616Z,10.68
2023-05-24T08:11:28.386Z,10.18
2023-05-24T08:13:55.734Z,14.95
2023-05-24T08:16:25.022Z,17.70
2023-05-24T08:18:54.762Z,19.23
2023-05-24T08:21:23.780Z,41.05
2023-05-24T08:23:51.300Z,11.60
2023-05-24T08:26:21.081Z,8.80
2023-05-24T08:28:48.598Z,9.73
2023-05-24T08:31:16.527Z,8.82
2023-05-24T08:33:44.401Z,11.75
2023-05-24T08:36:12.397Z,11.02
2023-05-24T08:38:39.861Z,9.25
2023-05-24T08:41:08.608Z,8.02
2023-05-24T08:43:36.726Z,10.30
2023-05-24T08:46:06.018Z,9.55
2023-05-24T08:48:42.153Z,9.45
2023-05-24T08:51:10.413Z,9.88
2023-05-24T08:53:39.925Z,10.85
2023-05-24T08:56:10.483Z,8.77
2023-05-24T08:58:40.611Z,8.15
2023-05-24T09:01:09.207Z,9.93
2023-05-24T09:03:38.849Z,7.70
2023-05-24T09:06:12.358Z,9.98
2023-05-24T09:08:43.883Z,13.18
2023-05-24T09:11:16.131Z,10.07
2023-05-24T09:13:46.082Z,13.70
2023-05-24T09:16:15.320Z,11.13
2023-05-24T09:18:45.817Z,9.32
2023-05-24T09:21:14.155Z,9.93
2023-05-24T09:23:42.035Z,8.27
2023-05-24T09:26:11.835Z,9.38
2023-05-24T09:28:41.841Z,6.82
2023-05-24T09:31:09.671Z,7.13
2023-05-24T09:33:39.020Z,7.45
2023-05-24T09:36:07.780Z,7.53
2023-05-24T09:38:36.679Z,7.20
2023-05-24T09:41:07.320Z,7.78
2023-05-24T09:43:47.664Z,11.77
2023-05-24T09:46:21.951Z,9.70
2023-05-24T09:49:06.859Z,8.68
2023-05-24T09:51:41.235Z,6.90
2023-05-24T09:54:09.891Z,11.15
2023-05-24T09:56:40.742Z,8.57
2023-05-24T09:59:09.976Z,7.97
2023-05-24T10:01:38.352Z,11.02
2023-05-24T10:04:10.273Z,7.75
2023-05-24T10:06:43.153Z,18.20
2023-05-24T10:09:11.337Z,11.48
2023-05-24T10:11:40.028Z,12.77
2023-05-24T10:14:10.949Z,9.25
2023-05-24T10:16:39.026Z,8.75
2023-05-24T10:19:07.432Z,5.90
2023-05-24T10:21:41.512Z,7.07
2023-05-24T10:24:11.844Z,8.23
2023-05-24T10:26:42.629Z,5.20
2023-05-24T10:29:29.604Z,6.50
2023-05-24T10:31:58.456Z,6.90
2023-05-24T10:34:26.852Z,6.10
2023-05-24T10:36:55.245Z,5.22
2023-05-24T10:39:23.341Z,5.70
2023-05-24T10:41:51.127Z,6.65
2023-05-24T10:44:21.280Z,7.22
2023-05-24T10:47:09.708Z,6.88
2023-05-24T10:49:39.801Z,15.98
2023-05-24T10:52:10.271Z,9.55
2023-05-24T10:54:39.776Z,8.95
2023-05-24T10:57:08.940Z,9.57
2023-05-24T10:59:39.607Z,7.82
2023-05-24T11:02:13.108Z,7.38
2023-05-24T11:04:47.795Z,9.55
2023-05-24T11:07:17.268Z,7.30
2023-05-24T11:09:56.230Z,11.75
2023-05-24T11:12:33.081Z,12.00
2023-05-24T11:15:03.386Z,15.60
2023-05-24T11:17:31.199Z,18.58
2023-05-24T11:20:00.776Z,10.02
2023-05-24T11:22:29.130Z,9.48
2023-05-24T11:24:57.944Z,9.88
2023-05-24T11:27:26.241Z,10.93
2023-05-24T11:29:54.287Z,13.82
2023-05-24T11:32:24.175Z,8.82
2023-05-24T11:34:51.929Z,8.15
2023-05-24T11:37:26.268Z,8.40
2023-05-24T11:39:59.234Z,8.60
2023-05-24T11:42:29.586Z,9.57
2023-05-24T11:44:57.099Z,6.80
2023-05-24T11:47:25.114Z,8.65
2023-05-24T11:49:52.761Z,13.80
2023-05-24T11:52:21.408Z,14.13
2023-05-24T11:54:50.887Z,6.93
2023-05-24T11:57:30.769Z,9.38
2023-05-24T11:59:58.659Z,7.53
2023-05-24T12:02:26.290Z,6.90
2023-05-24T12:04:54.280Z,28.38
2023-05-24T12:07:24.153Z,18.92
2023-05-24T12:09:51.538Z,14.63
2023-05-24T12:12:24.339Z,9.25
2023-05-24T12:14:56.895Z,7.53
2023-05-24T12:17:24.621Z,7.70
2023-05-24T12:19:52.234Z,8.60
2023-05-24T12:22:19.958Z,9.18
2023-05-24T12:24:52.287Z,12.30
2023-05-24T12:27:19.846Z,8.95
2023-05-24T12:29:49.076Z,7.75
2023-05-24T12:32:17.938Z,7.55
2023-05-24T12:34:45.575Z,11.85
2023-05-24T12:37:15.167Z,13.45
2023-05-24T12:39:44.485Z,10.35
2023-05-24T12:42:15.582Z,11.38
2023-05-24T12:44:43.024Z,10.50
2023-05-24T12:47:12.316Z,14.82
2023-05-24T12:49:39.696Z,20.83
2023-05-24T12:52:07.534Z,11.77
2023-05-24T12:54:35.222Z,11.00
2023-05-24T12:57:03.778Z,10.98
2023-05-24T12:59:31.531Z,11.95
2023-05-24T13:01:59.241Z,17.52
2023-05-24T13:04:27.482Z,7.95
2023-05-24T13:06:55.906Z,5.95
2023-05-24T13:09:23.905Z,8.50
2023-05-24T13:11:52.809Z,6.57
2023-05-24T13:14:20.601Z,5.85
2023-05-24T13:16:49.436Z,7.10
2023-05-24T13:19:17.530Z,6.00
2023-05-24T13:21:45.606Z,6.38
2023-05-24T13:24:16.681Z,6.38
2023-05-24T13:26:45.589Z,5.03
2023-05-24T13:31:45.208Z,7.57
2023-05-24T13:34:12.966Z,9.82
2023-05-24T13:36:40.796Z,8.07
2023-05-24T13:41:42.596Z,11.60
2023-05-24T13:44:10.790Z,13.63
2023-05-24T13:46:39.537Z,12.45
2023-05-24T13:49:09.425Z,17.00
2023-05-24T13:51:38.590Z,12.00
2023-05-24T13:54:07.491Z,13.65
2023-05-24T13:56:36.702Z,16.88
2023-05-24T13:59:05.420Z,10.70
2023-05-24T14:01:35.984Z,6.68
2023-05-24T14:04:05.157Z,8.52
2023-05-24T14:06:34.309Z,7.90
2023-05-24T14:09:01.831Z,7.57
2023-05-24T14:11:31.712Z,7.18
2023-05-24T14:16:30.455Z,6.85
2023-05-24T14:18:58.392Z,8.00
2023-05-24T14:21:27.193Z,9.90
2023-05-24T14:23:54.894Z,8.10
2023-05-24T14:26:23.799Z,8.60
2023-05-24T14:28:54.421Z,10.68
2023-05-24T14:31:24.760Z,7.55
2023-05-24T14:33:52.188Z,6.95
2023-05-24T14:36:19.853Z,8.52
2023-05-24T14:38:47.215Z,9.52
2023-05-24T14:41:15.595Z,8.48
2023-05-24T14:43:42.979Z,19.25
2023-05-24T14:46:10.681Z,24.35
2023-05-24T14:48:37.999Z,8.65
2023-05-24T14:51:05.833Z,10.60
2023-05-24T14:53:33.201Z,12.05
2023-05-24T14:56:00.794Z,18.60
2023-05-24T14:58:28.249Z,23.42
2023-05-24T15:00:56.088Z,12.63
2023-05-24T15:03:23.870Z,9.48
2023-05-24T15:05:52.500Z,6.93
2023-05-24T15:08:20.004Z,9.57
2023-05-24T15:10:48.033Z,7.22
2023-05-24T15:13:15.567Z,9.30
2023-05-24T15:15:43.397Z,8.70
2023-05-24T15:18:10.829Z,7.75
2023-05-24T15:20:38.502Z,8.05
2023-05-24T15:23:06.427Z,10.05
2023-05-24T15:25:34.172Z,7.28
2023-05-24T15:28:01.675Z,6.60
2023-05-24T15:30:29.767Z,7.95
2023-05-24T15:32:57.297Z,8.77
2023-05-24T15:35:24.958Z,6.72
2023-05-24T15:37:52.256Z,10.23
2023-05-24T15:40:23.977Z,24.23
2023-05-24T15:42:52.964Z,28.17
2023-05-24T15:45:21.415Z,14.52
2023-05-24T15:47:48.865Z,9.18
2023-05-24T15:50:21.745Z,7.13
2023-05-24T15:52:53.264Z,6.72
2023-05-24T15:55:21.072Z,8.13
2023-05-24T15:57:48.535Z,8.98
2023-05-24T16:00:16.969Z,7.32
2023-05-24T16:02:44.363Z,9.68
2023-05-24T16:05:12.133Z,6.28
2023-05-24T16:07:39.482Z,7.97
2023-05-24T16:10:07.810Z,9.10
2023-05-24T16:12:35.210Z,9.85
2023-05-24T16:15:03.655Z,8.82
2023-05-24T16:17:31.319Z,8.07
2023-05-24T16:19:59.674Z,9.60
2023-05-24T16:22:27.014Z,13.80
2023-05-24T16:24:54.733Z,18.10
2023-05-24T16:27:22.396Z,28.48
2023-05-24T16:29:50.068Z,19.55
2023-05-24T16:32:18.368Z,11.05
2023-05-24T16:37:19.615Z,7.10
2023-05-24T16:39:47.241Z,8.02
2023-05-24T16:42:14.502Z,6.72
2023-05-24T16:44:42.132Z,7.95
2023-05-24T16:47:09.518Z,8.55
2023-05-24T16:49:37.159Z,8.15
2023-05-24T16:52:04.672Z,7.35
2023-05-24T16:54:32.363Z,9.18
2023-05-24T16:56:59.713Z,9.73
2023-05-24T16:59:27.529Z,11.43
2023-05-24T17:01:54.941Z,7.35
2023-05-24T17:04:22.592Z,7.13
2023-05-24T17:06:49.858Z,8.85
2023-05-24T17:09:17.781Z,13.43
2023-05-24T17:11:45.083Z,15.77
2023-05-24T17:14:12.690Z,8.63
2023-05-24T17:16:40.048Z,9.73
2023-05-24T17:19:07.984Z,9.18
2023-05-24T17:21:36.970Z,9.50
2023-05-24T17:24:04.716Z,9.85
2023-05-24T17:26:32.111Z,8.57
2023-05-24T17:28:59.788Z,22.10
2023-05-24T17:31:27.163Z,28.13
2023-05-24T17:33:55.117Z,15.07
2023-05-24T17:36:22.447Z,9.60
2023-05-24T17:38:50.107Z,8.52
2023-05-24T17:41:17.523Z,10.93
2023-05-24T17:43:45.120Z,8.00
2023-05-24T17:46:13.624Z,8.65
2023-05-24T17:48:42.885Z,9.07
2023-05-24T17:51:11.072Z,7.75
2023-05-24T17:53:41.129Z,8.18
2023-05-24T17:56:09.040Z,9.55
2023-05-24T17:58:37.548Z,7.63
2023-05-24T18:01:07.502Z,7.93
2023-05-24T18:03:37.311Z,11.55
2023-05-24T18:06:07.121Z,11.93
2023-05-24T18:08:38.348Z,7.95
2023-05-24T18:11:09.662Z,12.40
2023-05-24T18:13:39.256Z,13.65
2023-05-24T18:16:08.365Z,12.15
2023-05-24T18:18:37.845Z,11.60
2023-05-24T18:21:06.219Z,15.45
2023-05-24T18:23:37.677Z,56.83
2023-05-24T18:26:10.620Z,26.35
2023-05-24T18:28:39.593Z,15.32
2023-05-24T18:31:10.863Z,9.30
2023-05-24T18:33:39.180Z,11.15
2023-05-24T18:36:07.155Z,8.38
2023-05-24T18:38:36.720Z,11.18
2023-05-24T18:41:06.287Z,11.60
2023-05-24T18:43:34.352Z,8.13
2023-05-24T18:46:02.102Z,9.75
2023-05-24T18:48:29.810Z,10.63
2023-05-24T18:50:57.203Z,9.02
2023-05-24T18:53:25.999Z,7.90
2023-05-24T18:55:53.347Z,6.47
2023-05-24T18:58:21.094Z,7.05
2023-05-24T19:00:48.451Z,10.50
2023-05-24T19:03:16.677Z,23.85
2023-05-24T19:05:44.416Z,34.17
2023-05-24T19:08:12.281Z,34.53
2023-05-24T19:10:39.665Z,23.83
2023-05-24T19:13:07.616Z,11.65
2023-05-24T19:15:36.802Z,8.60
2023-05-24T19:18:04.854Z,9.30
2023-05-24T19:20:32.153Z,11.45
2023-05-24T19:22:59.822Z,9.95
2023-05-24T19:25:27.185Z,7.97
2023-05-24T19:27:59.716Z,11.15
2023-05-24T19:30:28.051Z,6.95
2023-05-24T19:32:55.858Z,10.25
2023-05-24T19:35:23.322Z,8.48
2023-05-24T19:37:52.322Z,11.90
2023-05-24T19:40:20.637Z,9.43
2023-05-24T19:42:48.268Z,10.00
2023-05-24T19:45:16.467Z,8.50
2023-05-24T19:47:45.380Z,9.70
2023-05-24T19:50:12.797Z,6.40
2023-05-24T19:52:40.498Z,10.20
2023-05-24T19:55:08.607Z,8.35
2023-05-24T19:57:36.360Z,9.60
2023-05-24T20:00:05.124Z,8.43
2023-05-24T20:02:34.870Z,8.43
2023-05-24T20:05:04.348Z,9.40
2023-05-24T20:07:32.061Z,9.20
2023-05-24T20:09:59.450Z,6.90
2023-05-24T20:12:30.912Z,9.63
2023-05-24T20:14:58.255Z,8.23
2023-05-24T20:17:25.918Z,8.18
2023-05-24T20:19:53.277Z,7.60
2023-05-24T20:22:21.250Z,9.68
2023-05-24T20:24:48.614Z,7.90
2023-05-24T20:27:16.425Z,9.27
2023-05-24T20:29:43.816Z,8.10
2023-05-24T20:32:12.091Z,7.95
2023-05-24T20:34:39.599Z,5.22
2023-05-24T20:37:07.266Z,5.78
2023-05-24T20:39:34.718Z,8.32
2023-05-24T20:42:02.357Z,8.70
2023-05-24T20:44:29.707Z,8.10
2023-05-24T20:46:57.296Z,6.57
2023-05-24T20:49:24.635Z,9.52
2023-05-24T20:51:52.234Z,11.15
2023-05-24T20:54:19.574Z,24.92
2023-05-24T20:56:47.164Z,19.10
2023-05-24T20:59:14.584Z,12.30
2023-05-24T21:01:42.503Z,8.10
2023-05-24T21:04:10.039Z,10.00
2023-05-24T21:06:39.620Z,6.93
2023-05-24T21:09:06.949Z,9.30
2023-05-24T21:11:34.743Z,13.52
2023-05-24T21:14:02.198Z,14.00
2023-05-24T21:16:30.106Z,8.75
2023-05-24T21:19:01.081Z,10.30
2023-05-24T21:21:28.840Z,9.25
2023-05-24T21:23:56.757Z,9.18
2023-05-24T21:26:24.505Z,7.50
2023-05-24T21:28:52.046Z,4.88
2023-05-24T21:31:20.963Z,7.85
2023-05-24T21:33:48.380Z,10.70
2023-05-24T21:36:16.227Z,6.90
2023-05-24T21:38:43.716Z,8.10
2023-05-24T21:41:11.301Z,8.18
2023-05-24T21:43:42.908Z,11.20
2023-05-24T21:46:10.726Z,11.52
2023-05-24T21:48:38.107Z,8.93
2023-05-24T21:51:06.051Z,9.25
2023-05-24T21:53:35.070Z,11.57
2023-05-24T21:56:03.033Z,10.52
2023-05-24T21:58:30.495Z,10.88
2023-05-24T22:00:58.238Z,9.80
2023-05-24T22:03:25.989Z,13.05
2023-05-24T22:05:53.731Z,15.50
2023-05-24T22:08:21.259Z,11.18
2023-05-24T22:10:48.834Z,11.40
2023-05-24T22:13:16.257Z,12.38
2023-05-24T22:15:44.200Z,9.38
2023-05-24T22:18:12.807Z,11.85
2023-05-24T22:20:40.455Z,9.57
2023-05-24T22:23:07.757Z,12.15
2023-05-24T22:25:35.338Z,11.77
2023-05-24T22:28:02.656Z,10.23
2023-05-24T22:30:32.120Z,10.75
2023-05-24T22:32:59.474Z,12.50
2023-05-24T22:35:27.237Z,10.80
2023-05-24T22:37:54.658Z,9.35
2023-05-24T22:40:22.419Z,9.88
2023-05-24T22:42:49.747Z,14.75
2023-05-24T22:45:18.617Z,11.77
2023-05-24T22:47:49.253Z,13.25
2023-05-24T22:50:17.034Z,9.68
2023-05-24T22:52:46.737Z,14.38
2023-05-24T22:55:14.294Z,13.48
2023-05-24T22:57:41.737Z,13.02
2023-05-24T23:00:10.221Z,11.85
2023-05-24T23:02:38.098Z,7.90
2023-05-24T23:05:06.764Z,12.43
2023-05-24T23:07:34.076Z,9.23
2023-05-24T23:10:01.702Z,10.10
2023-05-24T23:12:29.280Z,9.18
2023-05-24T23:14:58.445Z,8.95
2023-05-24T23:17:26.480Z,10.00
2023-05-24T23:19:54.301Z,8.68
2023-05-24T23:22:23.718Z,9.70
2023-05-24T23:24:51.695Z,9.05
2023-05-24T23:27:19.285Z,9.93
2023-05-24T23:29:46.928Z,9.52
2023-05-24T23:32:14.266Z,9.02
2023-05-24T23:34:41.889Z,9.77
2023-05-24T23:37:09.245Z,9.45
2023-05-24T23:39:36.949Z,8.93
2023-05-24T23:42:04.941Z,13.00
2023-05-24T23:44:32.808Z,11.75
2023-05-24T23:47:00.169Z,9.90
2023-05-24T23:49:27.821Z,12.23
2023-05-24T23:51:55.169Z,10.38
2023-05-24T23:54:22.750Z,9.85
2023-05-24T23:56:50.826Z,12.48
2023-05-24T23:59:18.429Z,10.48
